createdAt,value
2023-02-02T00:02:02.283Z,98393.97
2023-02-02T00:04:31.666Z,98398.31
2023-02-02T00:06:58.982Z,98393.94
2023-02-02T00:09:31.082Z,98395.75
2023-02-02T00:11:58.908Z,98398.31
2023-02-02T00:14:25.609Z,98395.66
2023-02-02T00:16:56.724Z,98404.38
2023-02-02T00:19:26.590Z,98400.91
2023-02-02T00:21:54.472Z,98401.78
2023-02-02T00:24:21.764Z,98401.81
2023-02-02T00:26:51.188Z,98398.31
2023-02-02T00:29:22.611Z,98407.00
2023-02-02T00:31:49.577Z,98403.50
2023-02-02T00:34:16.815Z,98407.91
2023-02-02T00:36:44.726Z,98417.38
2023-02-02T00:39:15.355Z,98415.66
2023-02-02T00:41:42.090Z,98419.06
2023-02-02T00:44:41.036Z,98431.19
2023-02-02T00:47:07.667Z,98431.19
2023-02-02T00:49:34.189Z,98427.72
2023-02-02T00:52:00.865Z,98426.00
2023-02-02T00:54:27.859Z,98426.91
2023-02-02T00:56:54.579Z,98428.59
2023-02-02T00:59:21.140Z,98423.34
2023-02-02T01:01:47.908Z,98431.94
2023-02-02T01:04:14.497Z,98425.91
2023-02-02T01:06:41.016Z,98434.50
2023-02-02T01:09:07.665Z,98434.44
2023-02-02T01:11:34.289Z,98448.31
2023-02-02T01:14:00.980Z,98447.44
2023-02-02T01:16:27.891Z,98434.44
2023-02-02T01:18:54.549Z,98442.19
2023-02-02T01:21:21.456Z,98446.50
2023-02-02T01:23:48.255Z,98441.38
2023-02-02T01:26:15.778Z,98450.84
2023-02-02T01:28:43.091Z,98443.97
2023-02-02T01:31:19.343Z,98446.56
2023-02-02T01:33:47.412Z,98444.88
2023-02-02T01:36:17.026Z,98438.78
2023-02-02T01:38:44.086Z,98439.66
2023-02-02T01:41:16.846Z,98437.03
2023-02-02T01:43:43.513Z,98444.84
2023-02-02T01:46:15.621Z,98437.00
2023-02-02T01:48:51.485Z,98429.28
2023-02-02T01:51:24.375Z,98440.50
2023-02-02T01:53:54.518Z,98441.25
2023-02-02T01:56:34.158Z,98447.31
2023-02-02T01:59:01.813Z,98440.47
2023-02-02T02:01:28.696Z,98452.56
2023-02-02T02:03:56.405Z,98448.25
2023-02-02T02:06:25.974Z,98452.56
2023-02-02T02:09:00.664Z,98458.72
2023-02-02T02:11:27.651Z,98457.00
2023-02-02T02:14:15.255Z,98455.16
2023-02-02T02:16:53.585Z,98466.25
2023-02-02T02:19:30.512Z,98470.53
2023-02-02T02:22:27.766Z,98480.84
2023-02-02T02:25:43.160Z,98475.63
2023-02-02T02:28:36.031Z,98474.06
2023-02-02T02:31:16.428Z,98463.72
2023-02-02T02:33:55.170Z,98472.31
2023-02-02T02:36:51.039Z,98480.09
2023-02-02T02:39:39.852Z,98487.88
2023-02-02T02:42:20.629Z,98481.09
2023-02-02T02:44:49.500Z,98481.09
2023-02-02T02:47:19.267Z,98480.19
2023-02-02T02:49:48.119Z,98486.28
2023-02-02T02:52:15.078Z,98482.03
2023-02-02T02:54:49.916Z,98476.78
2023-02-02T02:57:42.866Z,98484.63
2023-02-02T03:00:23.096Z,98482.78
2023-02-02T03:03:08.249Z,98486.16
2023-02-02T03:05:50.270Z,98488.88
2023-02-02T03:08:40.083Z,98486.28
2023-02-02T03:11:09.790Z,98494.06
2023-02-02T03:13:36.647Z,98489.81
2023-02-02T03:16:03.382Z,98490.69
2023-02-02T03:18:32.805Z,98501.13
2023-02-02T03:21:00.225Z,98500.13
2023-02-02T03:23:27.237Z,98502.00
2023-02-02T03:25:55.324Z,98501.94
2023-02-02T03:28:24.000Z,98498.47
2023-02-02T03:30:52.185Z,98506.25
2023-02-02T03:33:19.517Z,98498.53
2023-02-02T03:35:46.415Z,98508.81
2023-02-02T03:38:13.071Z,98500.19
2023-02-02T03:40:40.599Z,98503.72
2023-02-02T03:43:07.222Z,98506.13
2023-02-02T03:45:35.698Z,98497.47
2023-02-02T03:48:06.132Z,98503.66
2023-02-02T03:50:33.480Z,98514.03
2023-02-02T03:53:00.567Z,98506.13
2023-02-02T03:55:27.243Z,98499.25
2023-02-02T03:57:53.894Z,98508.78
2023-02-02T04:00:20.982Z,98507.97
2023-02-02T04:02:47.632Z,98520.03
2023-02-02T04:05:14.280Z,98514.84
2023-02-02T04:07:40.860Z,98520.94
2023-02-02T04:10:07.607Z,98526.06
2023-02-02T04:12:34.175Z,98535.56
2023-02-02T04:15:00.865Z,98532.91
2023-02-02T04:17:27.432Z,98549.41
2023-02-02T04:19:58.316Z,98545.09
2023-02-02T04:22:26.097Z,98548.50
2023-02-02T04:24:52.833Z,98550.28
2023-02-02T04:27:19.421Z,98549.38
2023-02-02T04:29:45.965Z,98551.94
2023-02-02T04:32:14.942Z,98552.06
2023-02-02T04:34:41.555Z,98545.09
2023-02-02T04:37:08.328Z,98556.28
2023-02-02T04:39:34.990Z,98558.94
2023-02-02T04:42:02.064Z,98559.72
2023-02-02T04:44:28.827Z,98562.25
2023-02-02T04:46:55.479Z,98563.03
2023-02-02T04:49:22.083Z,98569.16
2023-02-02T04:51:50.499Z,98564.84
2023-02-02T04:54:17.151Z,98570.00
2023-02-02T04:56:43.873Z,98567.41
2023-02-02T04:59:10.417Z,98569.09
2023-02-02T05:01:37.070Z,98561.47
2023-02-02T05:04:03.894Z,98560.59
2023-02-02T05:06:30.458Z,98555.34
2023-02-02T05:08:57.153Z,98560.53
2023-02-02T05:11:24.400Z,98567.56
2023-02-02T05:13:53.245Z,98560.59
2023-02-02T05:16:20.596Z,98565.78
2023-02-02T05:18:56.732Z,98571.84
2023-02-02T05:21:23.855Z,98571.00
2023-02-02T05:23:50.607Z,98570.03
2023-02-02T05:26:25.941Z,98580.53
2023-02-02T05:28:53.183Z,98574.50
2023-02-02T05:31:20.914Z,98589.94
2023-02-02T05:33:47.641Z,98590.84
2023-02-02T05:36:14.563Z,98596.03
2023-02-02T05:38:41.172Z,98597.00
2023-02-02T05:41:07.873Z,98597.00
2023-02-02T05:43:35.009Z,98602.19
2023-02-02T05:46:01.896Z,98601.31
2023-02-02T05:48:29.095Z,98603.03
2023-02-02T05:51:12.251Z,98608.19
2023-02-02T05:53:38.868Z,98603.75
2023-02-02T05:56:05.959Z,98608.94
2023-02-02T05:58:32.544Z,98608.94
2023-02-02T06:00:59.143Z,98606.34
2023-02-02T06:03:25.699Z,98600.34
2023-02-02T06:05:52.662Z,98606.34
2023-02-02T06:08:19.375Z,98612.41
2023-02-02T06:10:45.983Z,98605.56
2023-02-02T06:13:12.623Z,98608.00
2023-02-02T06:15:39.242Z,98610.59
2023-02-02T06:18:08.632Z,98604.59
2023-02-02T06:20:35.725Z,98603.75
2023-02-02T06:23:02.664Z,98603.94
2023-02-02T06:25:29.688Z,98599.66
2023-02-02T06:28:00.726Z,98603.97
2023-02-02T06:30:28.291Z,98598.00
2023-02-02T06:32:54.897Z,98604.13
2023-02-02T06:35:21.747Z,98601.47
2023-02-02T06:37:49.279Z,98615.31
2023-02-02T06:40:16.449Z,98625.63
2023-02-02T06:42:43.021Z,98626.47
2023-02-02T06:45:10.322Z,98620.41
2023-02-02T06:47:36.985Z,98628.22
2023-02-02T06:50:04.362Z,98629.94
2023-02-02T06:52:30.973Z,98626.41
2023-02-02T06:54:57.593Z,98634.28
2023-02-02T06:57:24.385Z,98621.38
2023-02-02T06:59:51.460Z,98633.56
2023-02-02T07:02:18.316Z,98629.19
2023-02-02T07:04:44.847Z,98634.50
2023-02-02T07:07:11.364Z,98622.44
2023-02-02T07:09:38.103Z,98629.31
2023-02-02T07:12:04.625Z,98633.63
2023-02-02T07:14:31.179Z,98638.91
2023-02-02T07:16:57.627Z,98639.81
2023-02-02T07:19:24.117Z,98644.16
2023-02-02T07:21:50.813Z,98647.69
2023-02-02T07:24:17.365Z,98647.63
2023-02-02T07:26:44.090Z,98652.81
2023-02-02T07:29:16.544Z,98642.53
2023-02-02T07:31:43.257Z,98641.75
2023-02-02T07:34:09.999Z,98643.47
2023-02-02T07:36:37.067Z,98639.09
2023-02-02T07:39:05.277Z,98649.44
2023-02-02T07:41:34.839Z,98654.66
2023-02-02T07:44:01.926Z,98661.66
2023-02-02T07:46:28.790Z,98657.34
2023-02-02T07:48:56.584Z,98663.34
2023-02-02T07:51:24.919Z,98661.69
2023-02-02T07:53:53.727Z,98668.59
2023-02-02T07:56:22.601Z,98670.41
2023-02-02T07:58:52.701Z,98675.59
2023-02-02T08:01:20.697Z,98677.44
2023-02-02T08:03:47.548Z,98683.56
2023-02-02T08:06:23.690Z,98684.38
2023-02-02T08:08:50.542Z,98699.09
2023-02-02T08:11:20.444Z,98694.75
2023-02-02T08:13:52.474Z,98703.38
2023-02-02T08:16:19.593Z,98694.75
2023-02-02T08:18:46.562Z,98694.72
2023-02-02T08:21:13.644Z,98703.38
2023-02-02T08:23:41.656Z,98705.16
2023-02-02T08:26:13.200Z,98706.94
2023-02-02T08:28:41.592Z,98715.47
2023-02-02T08:31:22.143Z,98705.09
2023-02-02T08:33:49.267Z,98707.75
2023-02-02T08:36:18.636Z,98708.50
2023-02-02T08:38:46.102Z,98715.38
2023-02-02T08:41:16.605Z,98709.34
2023-02-02T08:43:43.885Z,98708.50
2023-02-02T08:46:14.193Z,98694.69
2023-02-02T08:48:41.301Z,98696.31
2023-02-02T08:51:10.741Z,98709.28
2023-02-02T08:53:37.680Z,98721.34
2023-02-02T08:56:12.014Z,98722.22
2023-02-02T08:58:39.211Z,98721.25
2023-02-02T09:01:25.713Z,98713.47
2023-02-02T09:04:18.669Z,98721.22
2023-02-02T09:06:45.948Z,98729.94
2023-02-02T09:09:16.410Z,98728.97
2023-02-02T09:11:43.552Z,98722.16
2023-02-02T09:14:12.089Z,98724.66
2023-02-02T09:16:39.459Z,98727.19
2023-02-02T09:19:06.667Z,98725.50
2023-02-02T09:21:37.531Z,98730.63
2023-02-02T09:24:12.141Z,98743.69
2023-02-02T09:26:40.971Z,98735.94
2023-02-02T09:29:11.540Z,98767.88
2023-02-02T09:31:38.501Z,98755.75
2023-02-02T09:34:08.023Z,98759.34
2023-02-02T09:36:35.441Z,98775.66
2023-02-02T09:39:02.586Z,98775.56
2023-02-02T09:41:35.100Z,98768.75
2023-02-02T09:44:39.176Z,98784.09
2023-02-02T09:47:20.586Z,98788.50
2023-02-02T09:50:02.291Z,98796.34
2023-02-02T09:52:34.807Z,98797.97
2023-02-02T09:55:09.788Z,98804.97
2023-02-02T09:57:54.285Z,98802.34
2023-02-02T10:00:29.899Z,98798.97
2023-02-02T10:03:06.288Z,98796.50
2023-02-02T10:05:47.735Z,98805.16
2023-02-02T10:08:34.262Z,98799.00
2023-02-02T10:11:15.379Z,98804.19
2023-02-02T10:13:44.429Z,98820.63
2023-02-02T10:16:20.146Z,98818.94
2023-02-02T10:18:58.343Z,98822.38
2023-02-02T10:21:39.142Z,98826.72
2023-02-02T10:24:12.886Z,98832.75
2023-02-02T10:26:52.917Z,98831.13
2023-02-02T10:29:47.747Z,98824.13
2023-02-02T10:32:24.957Z,98831.13
2023-02-02T10:35:20.898Z,98829.38
2023-02-02T10:37:59.799Z,98839.75
2023-02-02T10:40:48.294Z,98832.19
2023-02-02T10:43:48.867Z,98830.34
2023-02-02T10:46:43.827Z,98823.41
2023-02-02T10:49:27.273Z,98829.41
2023-02-02T10:52:20.183Z,98816.50
2023-02-02T10:54:58.112Z,98819.91
2023-02-02T10:57:47.491Z,98825.03
2023-02-02T11:00:26.088Z,98825.91
2023-02-02T11:02:53.701Z,98818.81
2023-02-02T11:05:42.500Z,98813.44
2023-02-02T11:08:22.503Z,98839.34
2023-02-02T11:10:54.737Z,98835.06
2023-02-02T11:13:31.837Z,98826.31
2023-02-02T11:16:16.955Z,98822.84
2023-02-02T11:18:44.623Z,98820.25
2023-02-02T11:21:18.344Z,98832.44
2023-02-02T11:24:20.600Z,98841.97
2023-02-02T11:26:52.851Z,98836.72
2023-02-02T11:29:31.801Z,98836.66
2023-02-02T11:31:58.991Z,98837.66
2023-02-02T11:34:27.528Z,98841.19
2023-02-02T11:37:12.139Z,98836.03
2023-02-02T11:39:40.537Z,98836.06
2023-02-02T11:42:15.293Z,98838.72
2023-02-02T11:44:50.245Z,98846.41
2023-02-02T11:47:35.297Z,98850.75
2023-02-02T11:50:04.957Z,98851.81
2023-02-02T11:52:34.002Z,98863.06
2023-02-02T11:55:15.042Z,98858.72
2023-02-02T11:58:03.470Z,98862.94
2023-02-02T12:00:30.902Z,98864.66
2023-02-02T12:02:58.446Z,98869.03
2023-02-02T12:05:25.197Z,98882.03
2023-02-02T12:07:51.938Z,98872.56
2023-02-02T12:10:29.238Z,98878.75
2023-02-02T12:13:05.939Z,98884.91
2023-02-02T12:15:42.946Z,98880.44
2023-02-02T12:18:30.798Z,98877.84
2023-02-02T12:21:21.630Z,98883.00
2023-02-02T12:24:02.796Z,98885.50
2023-02-02T12:26:33.390Z,98896.84
2023-02-02T12:29:30.606Z,98902.03
2023-02-02T12:32:09.089Z,98898.47
2023-02-02T12:35:02.126Z,98899.50
2023-02-02T12:38:00.034Z,98881.34
2023-02-02T12:40:57.192Z,98894.28
2023-02-02T12:43:29.470Z,98896.06
2023-02-02T12:46:07.175Z,98891.69
2023-02-02T12:48:48.258Z,98888.25
2023-02-02T12:51:32.518Z,98890.88
2023-02-02T12:54:32.856Z,98890.84
2023-02-02T12:56:53.941Z,98886.63
2023-02-02T13:00:00.621Z,98881.41
2023-02-02T13:02:53.293Z,98892.47
2023-02-02T13:06:04.843Z,98893.34
2023-02-02T13:08:45.873Z,98891.69
2023-02-02T13:11:30.229Z,98893.38
2023-02-02T13:14:08.662Z,98900.25
2023-02-02T13:16:38.184Z,98904.59
2023-02-02T13:19:15.266Z,98909.03
2023-02-02T13:21:43.357Z,98909.78
2023-02-02T13:24:15.261Z,98914.16
2023-02-02T13:26:46.080Z,98916.03
2023-02-02T13:29:30.376Z,98919.53
2023-02-02T13:32:03.239Z,98909.91
2023-02-02T13:34:39.139Z,98918.66
2023-02-02T13:37:18.887Z,98915.16
2023-02-02T13:39:54.062Z,98914.31
2023-02-02T13:42:48.510Z,98925.59
2023-02-02T13:45:34.037Z,98929.13
2023-02-02T13:48:13.030Z,98930.03
2023-02-02T13:50:53.774Z,98932.59
2023-02-02T13:53:39.853Z,98935.25
2023-02-02T13:56:40.607Z,98940.31
2023-02-02T13:59:45.766Z,98938.00
2023-02-02T14:02:32.380Z,98939.72
2023-02-02T14:05:02.043Z,98938.88
2023-02-02T14:07:44.170Z,98937.00
2023-02-02T14:10:31.678Z,98942.22
2023-02-02T14:13:30.190Z,98949.19
2023-02-02T14:15:58.610Z,98947.44
2023-02-02T14:18:55.896Z,98951.94
2023-02-02T14:21:31.826Z,98952.75
2023-02-02T14:23:59.817Z,98956.22
2023-02-02T14:26:50.887Z,98960.56
2023-02-02T14:29:32.730Z,98967.56
2023-02-02T14:32:03.526Z,98968.41
2023-02-02T14:34:37.091Z,98970.19
2023-02-02T14:37:14.595Z,98978.81
2023-02-02T14:39:48.511Z,98973.53
2023-02-02T14:42:45.248Z,98983.94
2023-02-02T14:45:11.876Z,98973.59
2023-02-02T14:47:52.914Z,98983.13
2023-02-02T14:50:41.836Z,98989.13
2023-02-02T14:53:15.215Z,98995.25
2023-02-02T14:55:56.046Z,99004.69
2023-02-02T14:58:34.187Z,99003.84
2023-02-02T15:01:06.596Z,99014.31
2023-02-02T15:03:35.310Z,99012.63
2023-02-02T15:06:14.304Z,99015.19
2023-02-02T15:08:41.109Z,99017.72
2023-02-02T15:11:27.644Z,99024.63
2023-02-02T15:14:07.401Z,99033.31
2023-02-02T15:16:37.097Z,99027.22
2023-02-02T15:19:31.594Z,99032.44
2023-02-02T15:22:05.995Z,99032.44
2023-02-02T15:24:36.487Z,99041.09
2023-02-02T15:27:04.739Z,99046.31
2023-02-02T15:29:44.790Z,99060.13
2023-02-02T15:32:20.457Z,99058.41
2023-02-02T15:34:51.260Z,99062.75
2023-02-02T15:37:23.718Z,99063.59
2023-02-02T15:39:56.993Z,99068.75
2023-02-02T15:42:54.222Z,99069.69
2023-02-02T15:45:55.059Z,99073.97
2023-02-02T15:48:30.079Z,99072.25
2023-02-02T15:51:03.120Z,99073.16
2023-02-02T15:53:49.592Z,99081.00
2023-02-02T15:56:30.632Z,99081.69
2023-02-02T15:58:59.710Z,99093.72
2023-02-02T16:01:30.557Z,99094.56
2023-02-02T16:04:31.053Z,99104.19
2023-02-02T16:06:58.034Z,99113.56
2023-02-02T16:09:33.021Z,99114.34
2023-02-02T16:11:59.711Z,99117.81
2023-02-02T16:14:26.357Z,99123.09
2023-02-02T16:16:53.138Z,99122.09
2023-02-02T16:19:25.018Z,99128.19
2023-02-02T16:22:04.458Z,99130.78
2023-02-02T16:24:37.219Z,99139.41
2023-02-02T16:27:07.223Z,99144.75
2023-02-02T16:29:35.035Z,99154.19
2023-02-02T16:32:01.977Z,99154.16
2023-02-02T16:34:46.800Z,99152.44
2023-02-02T16:37:27.456Z,99160.38
2023-02-02T16:40:28.054Z,99170.56
2023-02-02T16:43:28.455Z,99168.81
2023-02-02T16:46:01.377Z,99168.81
2023-02-02T16:48:35.824Z,99178.31
2023-02-02T16:51:18.094Z,99168.72
2023-02-02T16:53:47.752Z,99183.41
2023-02-02T16:56:42.353Z,99185.28
2023-02-02T16:59:30.060Z,99188.69
2023-02-02T17:01:59.821Z,99185.28
2023-02-02T17:04:34.093Z,99192.88
2023-02-02T17:07:13.349Z,99191.13
2023-02-02T17:09:42.607Z,99199.75
2023-02-02T17:12:35.211Z,99209.16
2023-02-02T17:15:25.961Z,99206.69
2023-02-02T17:17:52.790Z,99208.53
2023-02-02T17:20:20.067Z,99217.78
2023-02-02T17:22:49.792Z,99220.50
2023-02-02T17:25:28.880Z,99227.44
2023-02-02T17:27:58.401Z,99218.63
2023-02-02T17:30:25.381Z,99229.91
2023-02-02T17:32:52.094Z,99230.81
2023-02-02T17:35:22.394Z,99237.81
2023-02-02T17:37:49.897Z,99238.69
2023-02-02T17:40:18.088Z,99246.34
2023-02-02T17:42:46.889Z,99249.84
2023-02-02T17:45:28.614Z,99241.09
2023-02-02T17:47:55.420Z,99243.72
2023-02-02T17:50:22.266Z,99247.03
2023-02-02T17:52:49.999Z,99249.66
2023-02-02T17:55:24.476Z,99255.69
2023-02-02T17:57:52.853Z,99253.16
2023-02-02T18:00:22.927Z,99249.72
2023-02-02T18:02:54.168Z,99251.22
2023-02-02T18:05:22.437Z,99253.94
2023-02-02T18:07:49.672Z,99242.72
2023-02-02T18:10:17.036Z,99246.03
2023-02-02T18:12:43.789Z,99248.47
2023-02-02T18:15:14.310Z,99257.22
2023-02-02T18:17:41.916Z,99253.88
2023-02-02T18:20:09.912Z,99252.81
2023-02-02T18:22:36.541Z,99258.72
2023-02-02T18:25:05.129Z,99255.25
2023-02-02T18:27:31.994Z,99253.63
2023-02-02T18:29:58.614Z,99253.31
2023-02-02T18:32:25.368Z,99261.06
2023-02-02T18:34:55.717Z,99269.69
2023-02-02T18:37:24.186Z,99272.28
2023-02-02T18:39:50.777Z,99271.44
2023-02-02T18:42:17.631Z,99268.13
2023-02-02T18:44:45.101Z,99274.88
2023-02-02T18:47:11.856Z,99267.81
2023-02-02T18:49:38.447Z,99275.53
2023-02-02T18:52:05.232Z,99266.19
2023-02-02T18:54:34.081Z,99264.25
2023-02-02T18:57:00.668Z,99253.72
2023-02-02T18:59:28.641Z,99257.97
2023-02-02T19:01:55.844Z,99263.84
2023-02-02T19:04:22.535Z,99264.69
2023-02-02T19:07:07.937Z,99260.34
2023-02-02T19:09:35.153Z,99257.69
2023-02-02T19:12:02.418Z,99259.53
2023-02-02T19:14:33.314Z,99253.50
2023-02-02T19:17:20.453Z,99255.06
2023-02-02T19:19:48.600Z,99249.75
2023-02-02T19:22:20.065Z,99252.44
2023-02-02T19:24:47.527Z,99253.28
2023-02-02T19:27:22.422Z,99256.63
2023-02-02T19:29:52.117Z,99246.25
2023-02-02T19:32:22.157Z,99241.88
2023-02-02T19:34:51.852Z,99249.69
2023-02-02T19:37:30.310Z,99233.25
2023-02-02T19:40:09.168Z,99229.81
2023-02-02T19:42:40.676Z,99237.56
2023-02-02T19:45:34.290Z,99237.59
2023-02-02T19:48:11.866Z,99235.75
2023-02-02T19:50:41.518Z,99236.69
2023-02-02T19:53:35.934Z,99239.28
2023-02-02T19:56:21.681Z,99238.50
2023-02-02T19:58:49.065Z,99241.06
2023-02-02T20:01:20.081Z,99237.56
2023-02-02T20:03:46.957Z,99240.13
2023-02-02T20:06:22.004Z,99234.97
2023-02-02T20:08:48.645Z,99244.50
2023-02-02T20:11:39.749Z,99238.41
2023-02-02T20:14:18.909Z,99242.72
2023-02-02T20:16:52.905Z,99244.44
2023-02-02T20:19:22.230Z,99241.91
2023-02-02T20:21:51.541Z,99246.25
2023-02-02T20:24:25.511Z,99241.00
2023-02-02T20:26:55.441Z,99233.22
2023-02-02T20:29:36.547Z,99230.53
2023-02-02T20:32:04.824Z,99232.34
2023-02-02T20:34:35.275Z,99221.13
2023-02-02T20:37:14.319Z,99227.22
2023-02-02T20:40:01.523Z,99222.09
2023-02-02T20:42:29.301Z,99215.09
2023-02-02T20:44:58.402Z,99219.63
2023-02-02T20:47:25.247Z,99212.75
2023-02-02T20:49:51.981Z,99208.41
2023-02-02T20:52:24.207Z,99208.34
2023-02-02T20:54:51.970Z,99211.84
2023-02-02T20:57:19.173Z,99216.97
2023-02-02T20:59:46.059Z,99208.41
2023-02-02T21:02:19.040Z,99204.84
2023-02-02T21:04:49.301Z,99201.66
2023-02-02T21:07:17.177Z,99196.56
2023-02-02T21:09:44.859Z,99196.47
2023-02-02T21:12:11.830Z,99194.72
2023-02-02T21:14:39.230Z,99205.91
2023-02-02T21:17:14.706Z,99187.66
2023-02-02T21:19:42.063Z,99188.63
2023-02-02T21:22:08.709Z,99187.88
2023-02-02T21:24:35.499Z,99181.91
2023-02-02T21:27:03.547Z,99181.09
2023-02-02T21:29:31.882Z,99176.84
2023-02-02T21:32:01.671Z,99169.09
2023-02-02T21:34:29.382Z,99160.47
2023-02-02T21:36:58.327Z,99157.13
2023-02-02T21:39:29.493Z,99159.78
2023-02-02T21:42:08.296Z,99162.56
2023-02-02T21:44:41.353Z,99155.59
2023-02-02T21:47:33.130Z,99151.41
2023-02-02T21:50:11.921Z,99154.06
2023-02-02T21:52:38.590Z,99148.88
2023-02-02T21:55:31.255Z,99135.28
2023-02-02T21:57:58.899Z,99135.28
2023-02-02T22:00:29.004Z,99137.06
2023-02-02T22:02:55.891Z,99129.22
2023-02-02T22:05:36.689Z,99126.59
2023-02-02T22:08:18.605Z,99123.06
2023-02-02T22:10:45.582Z,99122.44
2023-02-02T22:13:21.019Z,99113.09
2023-02-02T22:15:49.823Z,99109.69
2023-02-02T22:18:19.562Z,99111.44
2023-02-02T22:20:48.162Z,99113.19
2023-02-02T22:23:16.755Z,99120.00
2023-02-02T22:25:45.169Z,99107.38
2023-02-02T22:28:21.146Z,99104.81
2023-02-02T22:30:49.428Z,99100.50
2023-02-02T22:33:16.520Z,99100.06
2023-02-02T22:35:43.791Z,99095.91
2023-02-02T22:38:18.311Z,99085.50
2023-02-02T22:40:46.217Z,99093.19
2023-02-02T22:43:16.729Z,99090.63
2023-02-02T22:45:46.793Z,99096.63
2023-02-02T22:48:14.700Z,99086.31
2023-02-02T22:50:41.843Z,99082.00
2023-02-02T22:53:08.382Z,99086.53
2023-02-02T22:55:35.320Z,99084.72
2023-02-02T22:58:02.051Z,99076.88
2023-02-02T23:00:30.977Z,99077.00
2023-02-02T23:02:57.721Z,99073.69
2023-02-02T23:05:26.254Z,99072.94
2023-02-02T23:07:53.911Z,99077.25
2023-02-02T23:10:26.600Z,99084.34
2023-02-02T23:12:55.751Z,99079.25
2023-02-02T23:15:22.666Z,99075.78
2023-02-02T23:17:49.612Z,99065.47
2023-02-02T23:20:16.898Z,99066.31
2023-02-02T23:22:43.835Z,99082.03
2023-02-02T23:25:12.391Z,99083.63
2023-02-02T23:27:39.178Z,99076.75
2023-02-02T23:30:07.572Z,99087.16
2023-02-02T23:32:34.881Z,99080.28
2023-02-02T23:35:01.733Z,99083.78
2023-02-02T23:37:28.331Z,99082.06
2023-02-02T23:39:54.989Z,99081.16
2023-02-02T23:42:21.763Z,99081.16
2023-02-02T23:44:48.367Z,99079.53
2023-02-02T23:47:16.121Z,99086.56
2023-02-02T23:49:43.182Z,99082.28
2023-02-02T23:52:10.150Z,99076.31
2023-02-02T23:54:37.173Z,99067.66
2023-02-02T23:57:04.121Z,99061.59
2023-02-02T23:59:30.753Z,99060.69
